Time;durP1;ratioP1;P1;durP2;ratioP2;P2;SDS_P1;SDS_P2;PMS_P1;PMS_P2;Temp;Humidity;BMP_temperature;BMP_pressure;BME280_temperature;BME280_humidity;BME280_pressure;Samples;Min_cycle;Max_cycle;Signal;HPM_P1;HPM_P2
2023/07/22 00:02:17;;;;;;;0.30;0.30;;;14.90;99.90;;;;;;5022600;28;20376;-79
2023/07/22 00:04:43;;;;;;;0.20;0.20;;;14.90;99.90;;;;;;5019031;28;20496;-79
2023/07/22 00:07:08;;;;;;;0.17;0.17;;;14.90;99.90;;;;;;5020354;28;20048;-81
2023/07/22 00:09:34;;;;;;;0.20;0.20;;;14.90;99.90;;;;;;5027523;28;20037;-77
2023/07/22 00:12:00;;;;;;;0.20;0.20;;;14.90;99.90;;;;;;5026439;28;20056;-79
2023/07/22 00:14:26;;;;;;;0.22;0.22;;;14.90;99.90;;;;;;5021140;28;20026;-79
2023/07/22 00:16:52;;;;;;;0.13;0.13;;;;;;;;;;5020275;28;20032;-78
2023/07/22 00:19:18;;;;;;;0.20;0.20;;;;;;;;;;5038610;28;20394;-78
2023/07/22 00:21:44;;;;;;;0.10;0.10;;;;;;;;;;5045797;28;20029;-78
2023/07/22 00:24:10;;;;;;;0.10;0.10;;;;;;;;;;5039805;28;20029;-78
2023/07/22 00:26:36;;;;;;;0.13;0.13;;;;;;;;;;5039048;28;20022;-80
2023/07/22 00:29:02;;;;;;;0.20;0.20;;;;;;;;;;5032226;28;20033;-80
2023/07/22 00:31:29;;;;;;;0.17;0.17;;;;;;;;;;5025197;28;20125;-79
2023/07/22 00:33:55;;;;;;;0.10;0.10;;;;;;;;;;5021364;28;20025;-79
2023/07/22 00:36:21;;;;;;;0.10;0.10;;;;;;;;;;5020576;28;20395;-76
2023/07/22 00:38:47;;;;;;;0.10;0.10;;;;;;;;;;5025217;28;20029;-80
2023/07/22 00:41:14;;;;;;;0.10;0.10;;;;;;;;;;5018996;28;20025;-80
2023/07/22 00:43:40;;;;;;;0.10;0.10;;;;;;;;;;5019826;28;20021;-81
2023/07/22 00:46:06;;;;;;;0.20;0.20;;;;;;;;;;5020717;28;20053;-82
2023/07/22 00:48:32;;;;;;;0.30;0.30;;;;;;;;;;5020319;28;20033;-82
2023/07/22 00:50:58;;;;;;;0.20;0.20;;;;;;;;;;5039094;28;20086;-80
2023/07/22 00:53:24;;;;;;;0.10;0.10;;;;;;;;;;5039209;28;20040;-81
2023/07/22 00:55:50;;;;;;;0.20;0.20;;;;;;;;;;5038964;28;20025;-82
2023/07/22 00:58:16;;;;;;;0.25;0.25;;;;;;;;;;5038250;28;20054;-80
2023/07/22 01:00:42;;;;;;;0.10;0.10;;;;;;;;;;5025549;28;20014;-76
2023/07/22 01:03:09;;;;;;;0.10;0.10;;;;;;;;;;5019727;28;20076;-82
2023/07/22 01:05:36;;;;;;;0.10;0.10;;;;;;;;;;5018536;28;20026;-81
2023/07/22 01:08:03;;;;;;;0.10;0.10;;;;;;;;;;5019364;28;20029;-81
2023/07/22 01:10:29;;;;;;;0.05;0.05;;;;;;;;;;5031767;28;20478;-81
2023/07/22 01:12:56;;;;;;;0.10;0.10;;;;;;;;;;5032258;28;20076;-81
2023/07/22 01:15:23;;;;;;;0.10;0.10;;;;;;;;;;5017893;28;20071;-81
2023/07/22 01:17:50;;;;;;;0.10;0.10;;;;;;;;;;5018481;28;20029;-81
2023/07/22 01:20:18;;;;;;;0.10;0.10;;;;;;;;;;5018715;28;20030;-82
2023/07/22 01:22:51;;;;;;;0.00;0.00;;;;;;;;;;5019840;28;20062;-77
2023/07/22 01:25:17;;;;;;;0.13;0.13;;;;;;;;;;5034190;28;20014;-80
2023/07/22 01:27:44;;;;;;;0.20;0.20;;;;;;;;;;5031149;28;20043;-77
2023/07/22 01:30:10;;;;;;;0.10;0.10;;;;;;;;;;5023315;28;20026;-78
2023/07/22 01:32:36;;;;;;;0.20;0.20;;;;;;;;;;5034040;28;20029;-82
2023/07/22 01:35:02;;;;;;;0.10;0.10;;;;;;;;;;5037934;28;20036;-80
2023/07/22 01:37:28;;;;;;;0.20;0.20;;;;;;;;;;5038052;28;20056;-81
2023/07/22 01:39:56;;;;;;;0.30;0.30;;;;;;;;;;5042123;28;20030;-82
2023/07/22 01:42:23;;;;;;;0.25;0.25;;;;;;;;;;5025750;28;20025;-81
2023/07/22 01:44:49;;;;;;;0.30;0.30;;;;;;;;;;5017672;28;20029;-80
2023/07/22 01:47:15;;;;;;;0.20;0.20;;;;;;;;;;5017538;28;20506;-81
2023/07/22 01:49:41;;;;;;;0.20;0.20;;;;;;;;;;5021296;28;20049;-81
2023/07/22 01:52:07;;;;;;;0.20;0.20;;;;;;;;;;5020528;28;20024;-80
2023/07/22 01:54:33;;;;;;;0.25;0.25;;;;;;;;;;5018283;28;20050;-82
2023/07/22 01:56:59;;;;;;;0.20;0.20;;;;;;;;;;5018914;28;20025;-82
2023/07/22 01:59:25;;;;;;;0.20;0.20;;;;;;;;;;5018323;28;20026;-82
2023/07/22 02:01:52;;;;;;;0.30;0.30;;;;;;;;;;5018617;28;20085;-82
2023/07/22 02:04:18;;;;;;;0.30;0.30;;;;;;;;;;5027801;28;20095;-79
2023/07/22 02:06:44;;;;;;;0.20;0.20;;;;;;;;;;5056055;28;20117;-78
2023/07/22 02:09:13;;;;;;;0.20;0.20;;;;;;;;;;5056755;28;20040;-78
2023/07/22 02:11:39;;;;;;;0.17;0.17;;;;;;;;;;5053247;28;20159;-77
2023/07/22 02:14:06;;;;;;;0.10;0.10;;;;;;;;;;5023231;28;20037;-82
2023/07/22 02:16:34;;;;;;;0.20;0.20;;;;;;;;;;5021106;28;20082;-81
2023/07/22 02:19:00;;;;;;;0.10;0.10;;;;;;;;;;5018196;28;20025;-81
2023/07/22 02:21:28;;;;;;;0.10;0.10;;;;;;;;;;5019642;28;20030;-79
2023/07/22 02:23:54;;;;;;;0.20;0.20;;;;;;;;;;5022189;28;20060;-77
2023/07/22 02:26:20;;;;;;;0.15;0.15;;;;;;;;;;5038153;28;20034;-79
2023/07/22 02:28:46;;;;;;;0.20;0.20;;;;;;;;;;5038850;28;20049;-81
2023/07/22 02:31:12;;;;;;;0.43;0.30;;;;;;;;;;5038080;28;20021;-81
2023/07/22 02:33:39;;;;;;;0.10;0.10;;;;;;;;;;5038123;28;20099;-82
2023/07/22 02:36:05;;;;;;;0.10;0.10;;;;;;;;;;5036650;28;20026;-80
2023/07/22 02:38:31;;;;;;;0.20;0.20;;;;;;;;;;5036455;28;20021;-80
2023/07/22 02:41:06;;;;;;;0.10;0.10;;;;;;;;;;5037484;28;20026;-80
2023/07/22 02:43:32;;;;;;;0.10;0.10;;;;;;;;;;5027410;28;20049;-82
2023/07/22 02:46:00;;;;;;;0.10;0.10;;;;;;;;;;5017264;28;20040;-81
2023/07/22 02:48:26;;;;;;;0.15;0.15;;;;;;;;;;5015974;28;20022;-82
2023/07/22 02:50:52;;;;;;;0.22;0.22;;;;;;;;;;5017950;28;20033;-81
2023/07/22 02:53:19;;;;;;;0.20;0.20;;;;;;;;;;5017333;28;20447;-82
2023/07/22 02:55:46;;;;;;;0.28;0.28;;;;;;;;;;5017777;28;20113;-81
2023/07/22 02:58:12;;;;;;;0.20;0.20;;;;;;;;;;5027087;28;20032;-78
2023/07/22 03:00:38;;;;;;;0.22;0.22;;;;;;;;;;5040307;28;20022;-80
2023/07/22 03:03:05;;;;;;;0.20;0.20;;;;;;;;;;5043083;28;20068;-82
2023/07/22 03:05:32;;;;;;;0.20;0.20;;;;;;;;;;5040616;28;20083;-82
2023/07/22 03:07:58;;;;;;;0.20;0.20;;;;;;;;;;5026149;28;20053;-81
2023/07/22 03:10:25;;;;;;;0.20;0.20;;;;;;;;;;5022949;28;20029;-81
2023/07/22 03:12:55;;;;;;;0.30;0.30;;;;;;;;;;5022739;28;20026;-81
2023/07/22 03:15:22;;;;;;;0.22;0.22;;;;;;;;;;5021399;28;20026;-81
2023/07/22 03:17:48;;;;;;;0.20;0.20;;;;;;;;;;5023586;28;20135;-82
2023/07/22 03:20:16;;;;;;;0.38;0.38;;;;;;;;;;5025435;28;20022;-81
2023/07/22 03:22:42;;;;;;;0.30;0.30;;;;;;;;;;5019875;28;20026;-80
2023/07/22 03:25:10;;;;;;;0.10;0.10;;;;;;;;;;5021117;28;20040;-82
2023/07/22 03:27:36;;;;;;;0.20;0.20;;;;;;;;;;5025811;28;20200;-80
2023/07/22 03:30:14;;;;;;;0.17;0.17;;;;;;;;;;5023460;28;20025;-79
2023/07/22 03:32:41;;;;;;;0.10;0.10;;;;;;;;;;5023847;28;20611;-79
2023/07/22 03:35:09;;;;;;;0.20;0.20;;;;;;;;;;5031210;28;20041;-81
2023/07/22 03:37:36;;;;;;;0.10;0.10;;;;;;;;;;5044368;28;20057;-79
2023/07/22 03:40:07;;;;;;;0.10;0.10;;;;;;;;;;5045755;28;20033;-76
2023/07/22 03:42:33;;;;;;;0.15;0.15;;;;;;;;;;5039324;28;20108;-79
2023/07/22 03:44:59;;;;;;;0.17;0.17;;;;;;;;;;5023904;28;20026;-79
2023/07/22 03:47:25;;;;;;;0.10;0.10;;;;;;;;;;5022149;28;20474;-81
2023/07/22 03:49:51;;;;;;;0.20;0.20;;;;;;;;;;5027421;28;20026;-80
2023/07/22 03:52:18;;;;;;;0.32;0.32;;;;;;;;;;5027488;28;20452;-81
2023/07/22 03:54:44;;;;;;;0.45;0.45;;;;;;;;;;5046162;28;20018;-81
2023/07/22 03:57:10;;;;;;;0.30;0.30;;;;;;;;;;5033149;28;20026;-79
2023/07/22 03:59:36;;;;;;;0.32;0.32;;;;;;;;;;5027892;28;20030;-79
2023/07/22 04:02:03;;;;;;;0.20;0.20;;;;;;;;;;5027166;28;20038;-80
2023/07/22 04:04:29;;;;;;;0.40;0.40;;;;;;;;;;5027827;28;20025;-78
2023/07/22 04:06:55;;;;;;;0.30;0.30;;;;;;;;;;5027515;28;20030;-80
2023/07/22 04:09:21;;;;;;;0.38;0.38;;;;;;;;;;5023548;28;20044;-77
2023/07/22 04:11:47;;;;;;;0.30;0.30;;;;;;;;;;5031471;28;20039;-79
2023/07/22 04:14:13;;;;;;;0.30;0.30;;;;;;;;;;5021381;28;20032;-79
2023/07/22 04:16:40;;;;;;;0.30;0.30;;;;;;;;;;5020754;28;20460;-81
2023/07/22 04:19:06;;;;;;;0.32;0.32;;;;;;;;;;5020720;28;20018;-80
2023/07/22 04:21:32;;;;;;;0.32;0.32;;;;;;;;;;5024349;28;20018;-81
2023/07/22 04:23:58;;;;;;;0.30;0.30;;;;;;;;;;5022215;28;20037;-79
2023/07/22 04:26:24;;;;;;;0.20;0.20;;;;;;;;;;5023047;28;20524;-80
2023/07/22 04:28:50;;;;;;;0.30;0.30;;;;;;;;;;5039818;28;20078;-81
2023/07/22 04:31:17;;;;;;;0.32;0.32;;;;;;;;;;5032187;28;20127;-80
2023/07/22 04:33:43;;;;;;;0.50;0.50;;;;;;;;;;5019791;28;20026;-80
2023/07/22 04:36:09;;;;;;;0.30;0.30;;;;;;;;;;5020856;28;20098;-82
2023/07/22 04:38:35;;;;;;;0.45;0.45;;;;;;;;;;5020556;28;20093;-81
2023/07/22 04:41:03;;;;;;;0.20;0.20;;;;;;;;;;5030923;28;20679;-79
2023/07/22 04:43:29;;;;;;;0.35;0.35;;;;;;;;;;5027277;28;20075;-81
2023/07/22 04:45:55;;;;;;;0.30;0.30;;;;;;;;;;5020831;28;20041;-81
2023/07/22 04:48:26;;;;;;;0.30;0.30;;;;;;;;;;5020676;28;20030;-80
2023/07/22 04:50:52;;;;;;;0.30;0.30;;;;;;;;;;5020173;28;20030;-80
2023/07/22 04:53:18;;;;;;;0.20;0.20;;;;;;;;;;5019360;28;20108;-79
2023/07/22 04:55:44;;;;;;;0.10;0.10;;;;;;;;;;5021851;28;20022;-76
2023/07/22 04:58:10;;;;;;;0.20;0.20;;;;;;;;;;5022482;28;20049;-79
2023/07/22 05:00:37;;;;;;;0.20;0.20;;;;;;;;;;5021354;28;20018;-78
2023/07/22 05:03:04;;;;;;;0.40;0.40;;;;;;;;;;5021769;28;20057;-79
2023/07/22 05:05:30;;;;;;;0.25;0.25;;;;;;;;;;5024186;28;20022;-81
2023/07/22 05:07:56;;;;;;;0.30;0.30;;;;;;;;;;5023644;28;20057;-80
2023/07/22 05:10:23;;;;;;;0.32;0.32;;;;;;;;;;5021878;28;20030;-78
2023/07/22 05:12:49;;;;;;;0.30;0.30;;;;;;;;;;5032516;28;20049;-78
2023/07/22 05:15:15;;;;;;;0.50;0.50;;;;;;;;;;5017989;28;20115;-79
2023/07/22 05:17:42;;;;;;;0.30;0.30;;;;;;;;;;5025451;28;20130;-79
2023/07/22 05:20:12;;;;;;;0.43;0.43;;;;;;;;;;5020188;28;20022;-79
2023/07/22 05:22:38;;;;;;;0.40;0.40;;;;;;;;;;5033772;28;20017;-80
2023/07/22 05:25:05;;;;;;;0.60;0.60;;;;;;;;;;5040084;28;20021;-80
2023/07/22 05:27:31;;;;;;;0.40;0.40;;;;;;;;;;5040256;28;20033;-80
2023/07/22 05:29:57;;;;;;;0.40;0.40;;;;;;;;;;5045145;28;20034;-78
2023/07/22 05:32:23;;;;;;;0.40;0.40;;;;;;;;;;5031661;28;20090;-79
2023/07/22 05:34:49;;;;;;;0.93;0.93;;;;;;;;;;5021426;28;20073;-80
2023/07/22 05:37:15;;;;;;;0.88;0.88;;;;;;;;;;5019798;28;20088;-78
2023/07/22 05:39:41;;;;;;;0.80;0.80;;;;;;;;;;5020018;28;20013;-79
2023/07/22 05:42:08;;;;;;;0.90;0.90;;;;;;;;;;5025637;28;20161;-80
2023/07/22 05:44:34;;;;;;;1.00;1.00;;;;;;;;;;5028066;28;20068;-80
2023/07/22 05:47:00;;;;;;;1.13;1.13;;;;;;;;;;5019484;28;20052;-80
2023/07/22 05:49:26;;;;;;;1.20;1.20;;;;;;;;;;5021445;28;20029;-80
2023/07/22 05:51:52;;;;;;;1.05;1.05;;;;;;;;;;5016950;28;20029;-80
2023/07/22 05:54:19;;;;;;;1.20;1.10;;;;;;;;;;5039096;28;20021;-80
2023/07/22 05:56:45;;;;;;;1.17;1.08;;;;;;;;;;5040864;28;20025;-80
2023/07/22 05:59:11;;;;;;;1.75;1.65;;;;;;;;;;5038914;28;20037;-81
2023/07/22 06:01:38;;;;;;;1.92;1.83;;;;;;;;;;5039184;28;20038;-80
2023/07/22 06:04:04;;;;;;;1.50;1.40;;;;;;;;;;5032574;28;20366;-77
2023/07/22 06:06:30;;;;;;;1.17;1.17;;;;;;;;;;5045016;28;20064;-77
2023/07/22 06:08:56;;;;;;;1.10;1.10;;;;;;;;;;5041671;28;20026;-77
2023/07/22 06:11:22;;;;;;;1.25;1.20;;;;;;;;;;5039783;28;20060;-76
2023/07/22 06:13:48;;;;;;;1.30;1.30;;;;;;;;;;5027004;28;20037;-77
2023/07/22 06:16:14;;;;;;;1.10;1.10;;;;;;;;;;5020341;28;20116;-76
2023/07/22 06:18:40;;;;;;;1.50;1.40;;;;;;;;;;5019898;28;20026;-76
2023/07/22 06:21:07;;;;;;;1.70;1.60;;;;;;;;;;5020391;28;20033;-76
2023/07/22 06:23:33;;;;;;;1.60;1.50;;;;;;;;;;5024170;28;20021;-76
2023/07/22 06:25:59;;;;;;;1.40;1.30;;;;;;;;;;5040839;28;20049;-77
2023/07/22 06:28:25;;;;;;;1.20;1.20;;;;;;;;;;5048952;28;20022;-76
2023/07/22 06:30:51;;;;;;;1.20;1.20;;;;;;;;;;5055411;28;20014;-75
2023/07/22 06:33:17;;;;;;;1.33;1.23;;;;;;;;;;5049582;28;20040;-78
2023/07/22 06:35:43;;;;;;;1.15;1.15;;;;;;;;;;5021651;28;20459;-77
2023/07/22 06:38:09;;;;;;;0.82;0.82;;;;;;;;;;5022078;28;20026;-79
2023/07/22 06:40:35;;;;;;;1.05;1.05;;;;;;;;;;5018296;28;20026;-77
2023/07/22 06:43:01;;;;;;;1.00;1.00;;;;;;;;;;5020060;28;20467;-77
2023/07/22 06:45:27;;;;;;;0.75;0.75;;;;;;;;;;5022858;28;20038;-79
2023/07/22 06:47:53;;;;;;;0.75;0.75;;;;;;;;;;5036245;28;20033;-77
2023/07/22 06:50:19;;;;;;;0.80;0.80;;;;;;;;;;5040568;28;20029;-75
2023/07/22 06:52:45;;;;;;;1.15;1.02;;;;;;;;;;5041235;28;20093;-78
2023/07/22 06:55:12;;;;;;;1.30;1.20;;;;;;;;;;5036873;28;20387;-77
2023/07/22 06:57:38;;;;;;;1.77;1.67;;;;;;;;;;5031076;28;20226;-77
2023/07/22 07:00:05;;;;;;;1.60;1.50;;;;;;;;;;5039436;28;20033;-78
2023/07/22 07:02:31;;;;;;;1.40;1.30;;;;;;;;;;5039699;28;20029;-78
2023/07/22 07:04:57;;;;;;;2.58;2.20;;;;;;;;;;5032523;28;20038;-78
2023/07/22 07:07:23;;;;;;;2.10;1.90;;;;;;;;;;5019158;28;20030;-77
2023/07/22 07:09:50;;;;;;;2.53;2.00;;;;;;;;;;5020816;28;20030;-78
2023/07/22 07:12:16;;;;;;;2.75;2.22;;;;;;;;;;5019081;28;20022;-77
2023/07/22 07:14:43;;;;;;;2.17;1.83;;;;;;;;;;5021798;28;20034;-77
2023/07/22 07:17:09;;;;;;;2.13;1.75;;;;;;;;;;5020322;28;20082;-79
2023/07/22 07:19:35;;;;;;;2.13;2.00;;;;;;;;;;5020158;28;20042;-79
2023/07/22 07:22:01;;;;;;;1.95;1.83;;;;;;;;;;5021670;28;20053;-77
2023/07/22 07:24:27;;;;;;;2.42;1.88;;;;;;;;;;5019136;28;20029;-78
2023/07/22 07:26:53;;;;;;;2.67;2.25;;;;;;;;;;5035717;28;20105;-76
2023/07/22 07:29:19;;;;;;;2.67;2.47;;;;;;;;;;5040722;28;20021;-77
2023/07/22 07:31:45;;;;;;;1.70;1.60;;;;;;;;;;5042395;28;20045;-78
2023/07/22 07:34:11;;;;;;;3.22;2.08;;;;;;;;;;5039320;28;20052;-79
2023/07/22 07:36:37;;;;;;;2.40;1.88;;;;;;;;;;5028526;28;20040;-77
2023/07/22 07:39:04;;;;;;;1.98;1.83;;;;;;;;;;5023058;28;20029;-77
2023/07/22 07:41:30;;;;;;;2.17;1.90;;;;;;;;;;5017024;28;20026;-77
2023/07/22 07:43:56;;;;;;;1.70;1.60;;;;;;;;;;5017995;28;20026;-75
2023/07/22 07:46:27;;;;;;;1.70;1.60;;;;;;;;;;5018336;28;20068;-78
2023/07/22 07:48:54;;;;;;;2.90;1.88;;;;;;;;;;5022016;28;20368;-77
2023/07/22 07:51:21;;;;;;;2.80;1.75;;;;;;;;;;5024454;28;20022;-80
2023/07/22 07:53:47;;;;;;;4.45;1.90;;;;;;;;;;5023095;28;20045;-79
2023/07/22 07:56:14;;;;;;;2.50;2.28;;;;;;;;;;5023796;28;20022;-79
2023/07/22 07:58:40;;;;;;;1.73;1.60;;;;;;;;;;5029993;28;20029;-77
2023/07/22 08:01:06;;;;;;;2.40;2.17;;;;;;;;;;5028785;28;20124;-80
2023/07/22 08:03:33;;;;;;;1.92;1.83;;;;;;;;;;5022429;28;20029;-78
2023/07/22 08:05:59;;;;;;;2.03;1.85;;;;;;;;;;5022733;28;20034;-77
2023/07/22 08:08:25;;;;;;;2.65;1.58;;;;;;;;;;5042581;28;20021;-76
2023/07/22 08:11:18;;;;;;;1.55;1.45;;;;;;;;;;5041158;28;20367;-78
2023/07/22 08:13:44;;;;;;;1.52;1.42;;;;;;;;;;5027962;28;20048;-78
2023/07/22 08:16:11;;;;;;;1.67;1.58;;;;;;;;;;5023561;28;20037;-79
2023/07/22 08:18:38;;;;;;;1.52;1.42;;;;;;;;;;5025587;28;20184;-78
2023/07/22 08:21:05;;;;;;;1.38;1.27;;;;;;;;;;5022098;28;20486;-76
2023/07/22 08:23:31;;;;;;;1.90;1.63;;;;;;;;;;5021998;28;20478;-76
2023/07/22 08:25:57;;;;;;;1.95;1.77;;;;;;;;;;5021593;28;20041;-78
2023/07/22 08:28:23;;;;;;;1.58;1.48;;;;;;;;;;5031478;28;20025;-77
2023/07/22 08:30:50;;;;;;;1.52;1.40;;;;;;;;;;5031570;28;20150;-78
2023/07/22 08:33:16;;;;;;;2.13;1.40;;;;;;;;;;5030659;28;20052;-78
2023/07/22 08:35:43;;;;;;;2.10;1.33;;;;;;;;;;5021348;28;20348;-77
2023/07/22 08:38:09;;;;;;;1.63;1.40;;;;;;;;;;5029074;28;20036;-78
2023/07/22 08:40:36;;;;;;;1.40;1.30;;;;;;;;;;5042592;28;20029;-78
2023/07/22 08:43:03;;;;;;;1.33;1.10;;;;;;;;;;5041662;28;20018;-77
2023/07/22 08:45:32;;;;;;;1.13;1.02;;;;;;;;;;5021323;28;20387;-78
2023/07/22 08:47:59;;;;;;;1.10;1.10;;;;;;;;;;5021559;28;20041;-76
2023/07/22 08:50:27;;;;;;;1.08;1.08;;;;;;;;;;5029515;28;20502;-79
2023/07/22 08:52:53;;;;;;;1.80;1.35;;;;;;;;;;5042729;28;20025;-77
2023/07/22 08:55:19;;;;;;;2.97;1.55;;;;;;;;;;5044847;28;20029;-76
2023/07/22 08:57:47;;;;;;;1.42;1.33;;;;;;;;;;5042626;28;20025;-76
2023/07/22 09:00:14;;;;;;;1.58;1.48;;;;;;;;;;5024651;28;20037;-78
2023/07/22 09:02:40;;;;;;;1.40;1.30;;;;;;;;;;5032033;28;20090;-77
2023/07/22 09:05:08;;;;;;;1.42;1.30;;;;;;;;;;5021230;28;20029;-79
2023/07/22 09:07:34;;;;;;;1.48;1.33;;;;;;;;;;5022051;28;20037;-78
2023/07/22 09:10:01;;;;;;;1.52;1.42;;;;;;;;;;5032587;28;20034;-80
2023/07/22 09:12:27;;;;;;;1.13;1.02;;;;;;;;;;5037284;28;20406;-80
2023/07/22 09:14:53;;;;;;;1.35;1.27;;;;;;;;;;5020531;28;20026;-81
2023/07/22 09:17:20;;;;;;;1.50;1.40;;;;;;;;;;5020881;28;20037;-81
2023/07/22 09:19:46;;;;;;;1.50;1.40;;;;;;;;;;5022194;28;20121;-81
2023/07/22 09:22:12;;;;;;;3.78;1.92;;;;;;;;;;5022602;28;20026;-78
2023/07/22 09:24:38;;;;;;;1.50;1.15;;;;;;;;;;5026345;28;20114;-81
2023/07/22 09:27:04;;;;;;;1.63;1.50;;;;;;;;;;5023986;28;20029;-81
2023/07/22 09:29:34;;;;;;;1.02;1.02;;;;;;;;;;5024697;28;20029;-76
2023/07/22 09:32:00;;;;;;;1.30;1.20;;;;;;;;;;5039611;28;20040;-80
2023/07/22 09:34:26;;;;;;;1.60;1.50;;;;;;;;;;5040542;28;20146;-78
2023/07/22 09:36:56;;;;;;;1.50;1.40;;;;;;;;;;5038786;28;20022;-81
2023/07/22 09:39:22;;;;;;;1.08;1.08;;;;;;;;;;5036986;28;20029;-80
2023/07/22 09:41:49;;;;;;;1.52;1.42;;;;;;;;;;5019845;28;20042;-80
2023/07/22 09:44:15;;;;;;;1.30;1.20;;;;;;;;;;5018879;28;20037;-79
2023/07/22 09:46:41;;;;;;;1.45;1.35;;;;;;;;;;5019864;28;20037;-78
2023/07/22 09:49:11;;;;;;;1.42;1.40;;;;;;;;;;5026044;28;20127;-79
2023/07/22 09:51:38;;;;;;;1.27;1.17;;;;;;;;;;5038951;28;20022;-82
2023/07/22 09:54:04;;;;;;;1.30;1.20;;;;;;;;;;5038251;28;20034;-77
2023/07/22 09:56:31;;;;;;;1.45;1.35;;;;;;;;;;5038745;28;20036;-79
2023/07/22 09:59:00;;;;;;;1.20;1.10;;;;;;;;;;5044034;28;20029;-80
2023/07/22 10:01:26;;;;;;;1.40;1.30;;;;;;;;;;5039331;28;20044;-80
2023/07/22 10:03:57;;;;;;;2.05;1.48;;;;;;;;;;5041195;28;20026;-78
2023/07/22 10:06:25;;;;;;;1.50;1.20;;;;;;;;;;5021123;28;20033;-80
2023/07/22 10:08:51;;;;;;;1.52;1.42;;;;;;;;;;5022903;28;20051;-80
2023/07/22 10:11:19;;;;;;;1.25;1.15;;;;;;;;;;5019092;28;20053;-79
2023/07/22 10:13:45;;;;;;;1.40;1.30;;;;;;;;;;5018597;28;20033;-77
2023/07/22 10:16:12;;;;;;;1.13;1.00;;;;;;;;;;5019081;28;20454;-80
2023/07/22 10:18:41;;;;;;;1.38;1.20;;;;;;;;;;5034881;28;20084;-78
2023/07/22 10:21:08;;;;;;;1.42;1.17;;;;;;;;;;5042050;28;20013;-79
2023/07/22 10:23:34;;;;;;;2.17;1.58;;;;;;;;;;5039300;28;20033;-79
2023/07/22 10:26:00;;;;;;;1.10;1.00;;;;;;;;;;5039654;28;20029;-79
2023/07/22 10:28:26;;;;;;;1.55;1.25;;;;;;;;;;5039110;28;20037;-78
2023/07/22 10:30:53;;;;;;;1.40;1.30;;;;;;;;;;5039450;28;20541;-78
2023/07/22 10:33:19;;;;;;;1.55;1.45;;;;;;;;;;5041837;28;20021;-81
2023/07/22 10:36:02;;;;;;;1.02;1.02;;;;;;;;;;5033297;28;20030;-80
2023/07/22 10:38:28;;;;;;;1.75;1.50;;;;;;;;;;5017968;28;20026;-79
2023/07/22 10:40:55;;;;;;;1.70;1.60;;;;;;;;;;5022158;28;20022;-79
2023/07/22 10:43:32;;;;;;;1.40;1.30;;;;;;;;;;5018618;28;20118;-79
2023/07/22 10:45:59;;;;;;;1.35;1.25;;;;;;;;;;5022461;28;20030;-76
2023/07/22 10:48:34;;;;;;;1.48;1.10;;;;;;;;;;5047803;28;20025;-77
2023/07/22 10:51:06;;;;;;;1.35;1.25;;;;;;;;;;5047821;28;20044;-77
2023/07/22 10:53:32;;;;;;;2.22;2.00;;;;;;;;;;5046445;28;20036;-76
2023/07/22 10:56:14;;;;;;;3.53;1.88;;;;;;;;;;5044193;28;20037;-79
2023/07/22 10:58:46;;;;;;;3.60;1.70;;;;;;;;;;5023895;28;20022;-79
2023/07/22 11:01:28;;;;;;;1.58;1.48;;;;;;;;;;5023471;28;20446;-79
2023/07/22 11:04:03;;;;;;;1.98;1.75;;;;;;;;;;5021800;28;20112;-76
2023/07/22 11:06:29;;;;;;;1.88;1.55;;;;;;;;;;5026409;28;20045;-79
2023/07/22 11:08:56;;;;;;;1.90;1.80;;;;;;;;;;5042341;28;20037;-77
2023/07/22 11:11:34;;;;;;;2.47;1.80;;;;;;;;;;5044735;28;20021;-78
2023/07/22 11:14:15;;;;;;;1.63;1.48;;;;;;;;;;5029171;28;20045;-79
2023/07/22 11:16:45;;;;;;;2.00;1.65;;;;;;;;;;5018955;28;20042;-77
2023/07/22 11:19:11;;;;;;;2.08;1.27;;;;;;;;;;5032544;28;20034;-77
2023/07/22 11:21:37;;;;;;;3.35;1.35;;;;;;;;;;5018383;28;20029;-78
2023/07/22 11:24:07;;;;;;;1.90;1.42;;;;;;;;;;5022119;28;20582;-79
2023/07/22 11:26:33;;;;;;;2.20;1.60;;;;;;;;;;5023710;28;20082;-79
2023/07/22 11:29:04;;;;;;;1.70;1.60;;;;;;;;;;5041038;28;20040;-77
2023/07/22 11:31:37;;;;;;;1.50;1.40;;;;;;;;;;5041708;28;20568;-80
2023/07/22 11:34:06;;;;;;;1.85;1.40;;;;;;;;;;5042843;28;20036;-80
2023/07/22 11:36:32;;;;;;;4.05;2.08;;;;;;;;;;5049431;22;20056;-76
2023/07/22 11:39:02;;;;;;;1.70;1.60;;;;;;;;;;5045592;28;20104;-76
2023/07/22 11:41:28;;;;;;;1.73;1.45;;;25.60;46.50;;;;;;5055390;28;20025;-77
2023/07/22 11:43:57;;;;;;;2.05;1.60;;;25.70;47.00;;;;;;5040978;28;20041;-77
2023/07/22 11:46:22;;;;;;;1.83;1.58;;;25.50;47.20;;;;;;5019842;28;20030;-76
2023/07/22 11:48:52;;;;;;;1.27;1.17;;;25.20;47.80;;;;;;5015729;28;20049;-76
2023/07/22 11:51:22;;;;;;;1.80;1.60;;;25.00;48.30;;;;;;5035362;28;20014;-75
2023/07/22 11:53:53;;;;;;;2.70;1.55;;;25.00;47.80;;;;;;5035437;28;20069;-75
2023/07/22 11:56:26;;;;;;;3.13;1.42;;;25.20;46.40;;;;;;5034610;28;20029;-75
2023/07/22 11:58:54;;;;;;;2.45;1.70;;;25.40;47.00;;;;;;5028895;28;20028;-76
2023/07/22 12:01:20;;;;;;;1.70;1.60;;;25.60;46.80;;;;;;5035812;28;20028;-76
2023/07/22 12:03:46;;;;;;;1.70;1.38;;;25.90;47.50;;;;;;5034652;28;20029;-76
2023/07/22 12:06:12;;;;;;;1.40;1.30;;;26.30;46.70;;;;;;5033574;28;20497;-76
2023/07/22 12:08:48;;;;;;;1.65;1.38;;;26.70;45.90;;;;;;5034867;28;20041;-77
2023/07/22 12:11:25;;;;;;;1.58;1.48;;;26.90;44.80;;;;;;5034107;28;20419;-76
2023/07/22 12:14:11;;;;;;;1.50;1.40;;;26.70;45.40;;;;;;5028514;28;20025;-76
2023/07/22 12:16:38;;;;;;;2.05;1.42;;;26.20;45.00;;;;;;5031838;28;20025;-76
2023/07/22 12:19:04;;;;;;;1.52;1.17;;;26.20;45.40;;;;;;5034724;28;20025;-77
2023/07/22 12:21:31;;;;;;;3.33;1.67;;;26.20;45.00;;;;;;5035922;28;20079;-76
2023/07/22 12:23:57;;;;;;;3.95;1.80;;;26.30;45.00;;;;;;5034282;28;20022;-77
2023/07/22 12:26:22;;;;;;;1.85;1.58;;;26.30;44.80;;;;;;5036308;28;20026;-76
2023/07/22 12:28:48;;;;;;;1.90;1.70;;;26.50;44.90;;;;;;5035951;28;20454;-76
2023/07/22 12:31:14;;;;;;;2.35;2.15;;;26.60;44.50;;;;;;5016329;28;20038;-76
2023/07/22 12:33:40;;;;;;;1.88;1.75;;;;;;;;;;5018555;28;20111;-76
2023/07/22 12:36:06;;;;;;;1.70;1.60;;;27.00;43.80;;;;;;5035986;28;20053;-75
2023/07/22 12:38:32;;;;;;;1.70;1.60;;;27.10;44.30;;;;;;5018136;28;20478;-76
2023/07/22 12:40:58;;;;;;;2.15;2.05;;;27.30;43.80;;;;;;5016281;28;20049;-76
2023/07/22 12:43:23;;;;;;;2.65;1.60;;;27.40;43.00;;;;;;5032313;28;20045;-77
2023/07/22 12:45:50;;;;;;;1.77;1.40;;;27.10;42.90;;;;;;5028598;28;20045;-76
2023/07/22 12:48:17;;;;;;;1.95;1.73;;;27.10;43.60;;;;;;5019047;28;20022;-77
2023/07/22 12:50:43;;;;;;;1.88;1.67;;;26.90;42.70;;;;;;5021973;28;20037;-76
2023/07/22 12:53:09;;;;;;;2.65;1.80;;;26.80;43.80;;;;;;5018421;28;20026;-76
2023/07/22 12:55:34;;;;;;;1.50;1.40;;;26.90;43.30;;;;;;5015183;28;20037;-78
2023/07/22 12:58:00;;;;;;;1.63;1.50;;;27.10;43.70;;;;;;5018407;28;20030;-76
2023/07/22 13:00:26;;;;;;;1.70;1.60;;;27.20;42.80;;;;;;5020519;28;20025;-76
2023/07/22 13:02:51;;;;;;;1.42;1.33;;;27.50;43.00;;;;;;5037696;28;20163;-76
2023/07/22 13:05:18;;;;;;;1.45;1.35;;;27.70;43.00;;;;;;5039032;28;20025;-77
2023/07/22 13:07:44;;;;;;;1.77;1.67;;;27.70;42.80;;;;;;5034910;28;20040;-77
2023/07/22 13:10:29;;;;;;;1.92;1.80;;;27.60;42.70;;;;;;5036455;28;20030;-78
2023/07/22 13:12:55;;;;;;;1.70;1.60;;;27.10;43.10;;;;;;5005287;28;20772;-77
2023/07/22 13:15:20;;;;;;;1.88;1.70;;;27.10;43.50;;;;;;5025277;28;20021;-77
2023/07/22 13:17:46;;;;;;;2.50;2.30;;;27.40;43.00;;;;;;5035554;28;20034;-78
2023/07/22 13:20:12;;;;;;;1.40;1.30;;;27.40;42.80;;;;;;5035791;28;20180;-77
2023/07/22 13:22:40;;;;;;;1.92;1.70;;;27.50;43.00;;;;;;5018655;28;20177;-77
2023/07/22 13:25:08;;;;;;;1.33;1.23;;;27.40;43.00;;;;;;5015957;28;20029;-76
2023/07/22 13:27:34;;;;;;;1.77;1.63;;;27.10;43.30;;;;;;5014306;28;20390;-76
2023/07/22 13:30:00;;;;;;;1.70;1.45;;;26.70;43.40;;;;;;5014831;28;20034;-77
2023/07/22 13:32:26;;;;;;;1.67;1.55;;;26.60;43.80;;;;;;5015298;28;20466;-77
2023/07/22 13:34:52;;;;;;;1.60;1.50;;;26.60;44.30;;;;;;5014388;28;20128;-76
2023/07/22 13:37:18;;;;;;;2.08;1.90;;;26.40;44.60;;;;;;5033224;28;20092;-76
2023/07/22 13:39:43;;;;;;;2.17;1.70;;;26.60;44.40;;;;;;5032762;28;20025;-76
2023/07/22 13:42:09;;;;;;;2.13;1.65;;;26.90;43.80;;;;;;5026397;28;20474;-76
2023/07/22 13:44:35;;;;;;;1.60;1.50;;;;;;;;;;5020252;28;20114;-76
2023/07/22 13:47:01;;;;;;;1.60;1.50;;;;;;;;;;5032613;28;20056;-76
2023/07/22 13:49:27;;;;;;;1.83;1.67;;;26.60;42.30;;;;;;5033832;28;20153;-77
2023/07/22 13:51:52;;;;;;;1.70;1.60;;;26.50;43.20;;;;;;5025483;28;20170;-77
2023/07/22 13:54:19;;;;;;;5.32;2.00;;;26.70;43.10;;;;;;5011870;28;20049;-76
2023/07/22 13:56:47;;;;;;;1.48;1.38;;;27.00;42.70;;;;;;5030108;28;20169;-76
2023/07/22 13:59:13;;;;;;;1.83;1.70;;;26.90;43.10;;;;;;5040766;28;20276;-77
2023/07/22 14:01:39;;;;;;;2.25;1.75;;;26.80;42.60;;;;;;5036590;28;20136;-77
2023/07/22 14:04:04;;;;;;;1.80;1.70;;;26.60;43.20;;;;;;5031203;28;20498;-76
2023/07/22 14:06:31;;;;;;;1.50;1.40;;;26.70;43.00;;;;;;5032269;28;20010;-76
2023/07/22 14:08:56;;;;;;;1.70;1.35;;;26.60;43.10;;;;;;5031347;28;20026;-77
2023/07/22 14:11:22;;;;;;;1.40;1.30;;;26.50;43.40;;;;;;5018880;28;20065;-76
2023/07/22 14:13:47;;;;;;;3.00;1.38;;;26.70;43.70;;;;;;5029586;28;20194;-76
2023/07/22 14:16:13;;;;;;;1.58;1.48;;;27.20;42.80;;;;;;5041857;28;20033;-75
2023/07/22 14:18:39;;;;;;;1.80;1.70;;;27.60;41.80;;;;;;5053484;28;20045;-75